Malaga, Spain

7:26 PM CEST on August 21, 2014 (GMT +0200)
IALALHAU2 | Change Station
CLOSE
Current Station
Personal Weather Station
Location: Alhaurin De La Torre, Malaga
Elevation: 360 ft
Nearby Weather Stations

Elev 360 ft 36.66 °N, 4.55 °W | Updated 5 minutes ago

Clear
Clear
86.7 °F
Feels Like 85 °F
N
2.0
Wind Variable Wind from NNE
Gusts 6.3 mph

Today
High -- | Low -- °F
--% Chance of Precip.
Yesterday
High -- | Low -- °F
Precip. -- in
7:40 AM 9:01 PM
Waning Crescent, 13% visible
Pressure 29.95 in
Visibility -9999.0 miles
Clouds
Heat Index 85 °F
Dew Point 52 °F
Humidity 31%
Rainfall -999.00 in
Snow Depth Not available.
UV Not available.
Pollen Not available.
Air Quality Not available.
Flu Activity Not available.
METAR LXGB 211650Z 21010KT CAVOK 28/12 Q1014 NOSIG

More Conditions Fewer Conditions

Pressure 29.95 in
Visibility -9999.0 miles
Clouds
Heat Index 85 °F
Dew Point 52 °F
Humidity 31%
Rainfall -999.00 in
Snow Depth Not available.
UV Not available.
Pollen Not available.
Air Quality Not available.
Flu Activity Not available.
METAR LXGB 211650Z 21010KT CAVOK 28/12 Q1014 NOSIG

More Conditions Fewer Conditions

10-Day Weather Forecast

Almanac

Astronomy

Aug. 21, 2014 Rise Set
Actual Time 7:40 AM CEST 9:01 PM CEST
Civil Twilight 7:12 AM CEST 9:28 PM CEST
Nautical Twilight 6:40 AM CEST 10:00 PM CEST
Astronomical Twilight 6:06 AM CEST 10:34 PM CEST
Moon 4:00 AM CEST 6:17 PM CEST
Length of Visible Light 14h 15m
Length of Day
13h 21m
Tomorrow will be 2m 7s shorter.
Waning Crescent, 13% of the Moon is Illuminated
Today
Waning Crescent
Aug 25
New
Sep 2
First Quarter
Sep 8
Full
Sep 15
Last Quarter

Today's Extremes

Country Highs Country Lows

Community

WunderPhotos

Upload Photos

1,745,969 photos uploaded!

Nearby

Snow Depth

Not available.

Earthquake Activity

City Distance Mag. Time & Date
No recent earthquake activity has been reported nearby.
Minimum magnitude displayed is 2.5.

Coastal Water Temperatures

Place Temperature
No Stations Reporting

Nearby Weather Stations